Hlavní strana
METAR-TAF:

METAR-TAF

Letiště :

Flemingsburg, Kentucky, Spojené státy americké

zeměpisná šířka: 38-32-30N, zeměpisná délka: 083-44-36W, výška: 278 m

Aktuální stav počasí

Zpráva byla vytvořena před 21 hodinami a 40 minutami, v 23:55 UTC
Jihojihozápadní vítr 3 kt
Teplota 26°C
Vlhkost vzduchu 84%
Tlak 1014 hPa
Viditelnost: 16.1 km
Jasno

METAR: KFGX 202355Z AUTO 20003KT 10SM CLR 26/23 A2993 RMK AO2 T02620230 10300 20258

Čas: 17:35 (21:35 UTC)


TAF: chybějící

Stav a předpovědi počasí z více než 4 000 letišť (zprávy METAR a TAF).

Červené a žluté tečky na mapě představují dostupné meteorologické stanice.

Když kurzor umístíte na tečku, zobrazí se název stanice.

Pak kliknutím zobrazíte stav a předpověď počasí.

Chcete-li změnit mapu, kliknutím na zelené tlačítko se znaménkem +mapu přiblížíte, kliknutím na zelené tlačítko se znaménkem – mapu oddálíte a kliknutím na zelené šipky přejdete na sousední mapy.


METAR-TAF: